Time;durP1;ratioP1;P1;durP2;ratioP2;P2;SDS_P1;SDS_P2;PMS_P1;PMS_P2;Temp;Humidity;BMP_temperature;BMP_pressure;BME280_temperature;BME280_humidity;BME280_pressure;Samples;Min_cycle;Max_cycle;Signal;HPM_P1;HPM_P2
2021/10/04 00:00:37;;;;;;;;;;;;;;;;;;5047158;28;19925;-64
2021/10/04 00:03:04;;;;;;;;;;;;;;;;;;5048289;28;20297;-63
2021/10/04 00:05:31;;;;;;;;;;;;;;;;;;5045914;28;19981;-63
2021/10/04 00:07:58;;;;;;;;;;;;;;;;;;5048981;28;19925;-63
2021/10/04 00:10:25;;;;;;;;;;;;;;;;;;5049185;28;19925;-63
2021/10/04 00:12:52;;;;;;;;;;;;;;;;;;5047940;28;20453;-64
2021/10/04 00:15:19;;;;;;;;;;;;;;;;;;5045664;28;19947;-67
2021/10/04 00:17:46;;;;;;;;;;;;;;;;;;5049316;28;20035;-63
2021/10/04 00:20:13;;;;;;;;;;;;;;;;;;5046844;28;19928;-63
2021/10/04 00:22:40;;;;;;;;;;;;;;;;;;5040978;28;19939;-62
2021/10/04 00:25:07;;;;;;;;;;;;;;;;;;5046022;28;19925;-63
2021/10/04 00:27:34;;;;;;;;;;;;;;;;;;5045788;28;19929;-62
2021/10/04 00:30:05;;;;;;;;;;;;;;;;;;5047400;28;19929;-62
2021/10/04 00:32:32;;;;;;;;;;;;;;;;;;5049338;28;19932;-61
2021/10/04 00:34:59;;;;;;;;;;;;;;;;;;5045573;28;20397;-62
2021/10/04 00:37:26;;;;;;;;;;;;;;;;;;5047840;28;19925;-62
2021/10/04 00:39:53;;;;;;;;;;;;;;;;;;5048694;28;19936;-60
2021/10/04 00:42:21;;;;;;;;;;;;;;;;;;5052157;28;19925;-62
2021/10/04 00:44:48;;;;;;;;;;;;;;;;;;5050072;28;19932;-62
2021/10/04 00:47:15;;;;;;;;;;;;;;;;;;5047002;28;20405;-63
2021/10/04 00:49:42;;;;;;;;;;;;;;;;;;5047634;28;19959;-62
2021/10/04 00:52:09;;;;;;;;;;;;;;;;;;5051667;28;19932;-62
2021/10/04 00:54:36;;;;;;;;;;;;;;;;;;5053459;28;19932;-61
2021/10/04 00:57:03;;;;;;;;;;;;;;;;;;5049020;28;19932;-62
2021/10/04 00:59:30;;;;;;;;;;;;;;;;;;5052981;28;19925;-62
2021/10/04 01:01:57;;;;;;;;;;;;;;;;;;5052612;28;19931;-62
2021/10/04 01:04:26;;;;;;;;;;;;;;;;;;5053837;28;19979;-62
2021/10/04 01:06:53;;;;;;;;;;;;;;;;;;5050741;28;20347;-62
2021/10/04 01:09:20;;;;;;;;;;;;;;;;;;5047632;28;20312;-63
2021/10/04 01:11:47;;;;;;;;;;;;;;;;;;5053217;28;20289;-62
2021/10/04 01:14:14;;;;;;;;;;;;;;;;;;5052993;28;19925;-62
2021/10/04 01:16:41;;;;;;;;;;;;;;;;;;5049432;28;19932;-63
2021/10/04 01:19:08;;;;;;;;;;;;;;;;;;5051264;28;19936;-62
2021/10/04 01:21:35;;;;;;;;;;;;;;;;;;5050576;28;19937;-63
2021/10/04 01:24:02;;;;;;;;;;;;;;;;;;5048299;28;20045;-62
2021/10/04 01:26:29;;;;;;;;;;;;;;;;;;5045444;28;20123;-62
2021/10/04 01:28:56;;;;;;;;;;;;;;;;;;5045314;28;19925;-62
2021/10/04 01:31:23;;;;;;;;;;;;;;;;;;5049555;28;19936;-63
2021/10/04 01:33:50;;;;;;;;;;;;;;;;;;5051851;28;19932;-63
2021/10/04 01:36:17;;;;;;;;;;;;;;;;;;5048127;28;19925;-63
2021/10/04 01:38:44;;;;;;;;;;;;;;;;;;5050796;28;19932;-61
2021/10/04 01:41:11;;;;;;;;;;;;;;;;;;5045882;28;19933;-63
2021/10/04 01:43:38;;;;;;;;;;;;;;;;;;5049939;28;20385;-63
2021/10/04 01:46:05;;;;;;;;;;;;;;;;;;5050859;28;20019;-62
2021/10/04 01:48:32;;;;;;;;;;;;;;;;;;5048821;28;19931;-63
2021/10/04 01:50:59;;;;;;;;;;;;;;;;;;5045257;28;19933;-63
2021/10/04 01:53:26;;;;;;;;;;;;;;;;;;5051423;28;19925;-62
2021/10/04 01:55:53;;;;;;;;;;;;;;;;;;5051768;28;19935;-63
2021/10/04 01:58:20;;;;;;;;;;;;;;;;;;5049050;28;19925;-63
2021/10/04 02:00:47;;;;;;;;;;;;;;;;;;5046861;28;19925;-64
2021/10/04 02:03:13;;;;;;;;;;;;;;;;;;5050204;28;19928;-63
2021/10/04 02:05:40;;;;;;;;;;;;;;;;;;5050239;28;19947;-63
2021/10/04 02:08:07;;;;;;;;;;;;;;;;;;5045787;28;19925;-64
2021/10/04 02:10:35;;;;;;;;;;;;;;;;;;5051001;28;19940;-64
2021/10/04 02:13:02;;;;;;;;;;;;;;;;;;5049504;28;19924;-63
2021/10/04 02:15:29;;;;;;;;;;;;;;;;;;5047434;28;19925;-64
2021/10/04 02:17:56;;;;;;;;;;;;;;;;;;5046759;28;19932;-64
2021/10/04 02:20:23;;;;;;;;;;;;;;;;;;5051019;28;19936;-63
2021/10/04 02:22:50;;;;;;;;;;;;;;;;;;5052180;28;19925;-64
2021/10/04 02:25:17;;;;;;;;;;;;;;;;;;5050250;28;19931;-62
2021/10/04 02:27:44;;;;;;;;;;;;;;;;;;5048692;28;19932;-67
2021/10/04 02:30:11;;;;;;;;;;;;;;;;;;5051224;28;20381;-64
2021/10/04 02:32:38;;;;;;;;;;;;;;;;;;5047853;28;19931;-62
2021/10/04 02:35:05;;;;;;;;;;;;;;;;;;5052285;28;19932;-64
2021/10/04 02:37:32;;;;;;;;;;;;;;;;;;5050802;28;19925;-64
2021/10/04 02:39:59;;;;;;;;;;;;;;;;;;5046011;28;19924;-63
2021/10/04 02:42:26;;;;;;;;;;;;;;;;;;5051284;28;19938;-64
2021/10/04 02:44:53;;;;;;;;;;;;;;;;;;5050963;28;20027;-63
2021/10/04 02:47:20;;;;;;;;;;;;;;;;;;5051694;28;19964;-62
2021/10/04 02:49:47;;;;;;;;;;;;;;;;;;5050690;28;19932;-63
2021/10/04 02:52:16;;;;;;;;;;;;;;;;;;5049952;28;19931;-62
2021/10/04 02:54:43;;;;;;;;;;;;;;;;;;5046662;28;19928;-63
2021/10/04 02:57:10;;;;;;;;;;;;;;;;;;5051104;28;20388;-64
2021/10/04 02:59:37;;;;;;;;;;;;;;;;;;5051911;28;20108;-63
2021/10/04 03:02:04;;;;;;;;;;;;;;;;;;5049152;28;19931;-63
2021/10/04 03:04:31;;;;;;;;;;;;;;;;;;5048072;28;19925;-63
2021/10/04 03:06:58;;;;;;;;;;;;;;;;;;5045106;28;19924;-63
2021/10/04 03:09:25;;;;;;;;;;;;;;;;;;5044574;28;19943;-63
2021/10/04 03:11:52;;;;;;;;;;;;;;;;;;5050487;28;19932;-63
2021/10/04 03:14:19;;;;;;;;;;;;;;;;;;5048417;28;19925;-63
2021/10/04 03:16:46;;;;;;;;;;;;;;;;;;5045399;28;20381;-63
2021/10/04 03:19:13;;;;;;;;;;;;;;;;;;5046795;28;19952;-62
2021/10/04 03:21:40;;;;;;;;;;;;;;;;;;5049721;28;19932;-63
2021/10/04 03:24:07;;;;;;;;;;;;;;;;;;5046281;28;19931;-63
2021/10/04 03:26:34;;;;;;;;;;;;;;;;;;5049147;28;19925;-63
2021/10/04 03:29:01;;;;;;;;;;;;;;;;;;5050869;28;19924;-63
2021/10/04 03:31:28;;;;;;;;;;;;;;;;;;5047460;28;20565;-63
2021/10/04 03:33:55;;;;;;;;;;;;;;;;;;5047969;28;19940;-62
2021/10/04 03:36:22;;;;;;;;;;;;;;;;;;5048756;28;19947;-63
2021/10/04 03:38:49;;;;;;;;;;;;;;;;;;5048669;28;19932;-61
2021/10/04 03:41:16;;;;;;;;;;;;;;;;;;5049929;28;19928;-62
2021/10/04 03:43:43;;;;;;;;;;;;;;;;;;5052799;22;19925;-66
2021/10/04 03:46:10;;;;;;;;;;;;;;;;;;5029099;28;19925;-67
2021/10/04 03:48:36;;;;;;;;;;;;;;;;;;5033969;28;20316;-66
2021/10/04 03:51:03;;;;;;;;;;;;;;;;;;5030742;28;19925;-67
2021/10/04 03:53:30;;;;;;;;;;;;;;;;;;5015709;28;19926;-67
2021/10/04 03:55:57;;;;;;;;;;;;;;;;;;5012980;28;19933;-67
2021/10/04 03:58:24;;;;;;;;;;;;;;;;;;5014185;28;19930;-67
2021/10/04 04:00:51;;;;;;;;;;;;;;;;;;5012582;28;19932;-66
2021/10/04 04:03:18;;;;;;;;;;;;;;;;;;5012600;28;19992;-66
2021/10/04 04:05:45;;;;;;;;;;;;;;;;;;5013985;28;19925;-66
2021/10/04 04:08:12;;;;;;;;;;;;;;;;;;5013385;28;19925;-67
2021/10/04 04:10:39;;;;;;;;;;;;;;;;;;5013114;28;19925;-66
2021/10/04 04:13:06;;;;;;;;;;;;;;;;;;5011329;28;19925;-68
2021/10/04 04:15:33;;;;;;;;;;;;;;;;;;5014162;28;19943;-66
2021/10/04 04:18:00;;;;;;;;;;;;;;;;;;5014910;28;19933;-66
2021/10/04 04:20:27;;;;;;;;;;;;;;;;;;5008631;28;19933;-67
2021/10/04 04:22:54;;;;;;;;;;;;;;;;;;5014159;28;20316;-66
2021/10/04 04:25:21;;;;;;;;;;;;;;;;;;5013980;28;19932;-65
2021/10/04 04:27:47;;;;;;;;;;;;;;;;;;5017478;28;19925;-66
2021/10/04 04:30:14;;;;;;;;;;;;;;;;;;5013285;28;20321;-66
2021/10/04 04:32:41;;;;;;;;;;;;;;;;;;5014738;28;19931;-65
2021/10/04 04:35:08;;;;;;;;;;;;;;;;;;5018885;28;19969;-66
2021/10/04 04:37:35;;;;;;;;;;;;;;;;;;5022171;28;19931;-66
2021/10/04 04:40:02;;;;;;;;;;;;;;;;;;5019760;28;20180;-66
2021/10/04 04:42:29;;;;;;;;;;;;;;;;;;5017060;28;19932;-66
2021/10/04 04:44:56;;;;;;;;;;;;;;;;;;5015813;28;20038;-67
2021/10/04 04:47:23;;;;;;;;;;;;;;;;;;5015270;28;19944;-66
2021/10/04 04:49:50;;;;;;;;;;;;;;;;;;5014368;28;19929;-66
2021/10/04 04:52:17;;;;;;;;;;;;;;;;;;5016222;28;19925;-67
2021/10/04 04:54:44;;;;;;;;;;;;;;;;;;5015671;28;20381;-66
2021/10/04 04:57:11;;;;;;;;;;;;;;;;;;5017521;28;20013;-66
2021/10/04 04:59:38;;;;;;;;;;;;;;;;;;5012782;28;19925;-66
2021/10/04 05:02:07;;;;;;;;;;;;;;;;;;5007786;28;19953;-66
2021/10/04 05:04:34;;;;;;;;;;;;;;;;;;5015884;28;20339;-66
2021/10/04 05:07:01;;;;;;;;;;;;;;;;;;5015586;28;19933;-66
2021/10/04 05:09:28;;;;;;;;;;;;;;;;;;5016799;28;19925;-67
2021/10/04 05:11:55;;;;;;;;;;;;;;;;;;5014629;28;19929;-67
2021/10/04 05:14:22;;;;;;;;;;;;;;;;;;5017310;28;19925;-66
2021/10/04 05:16:49;;;;;;;;;;;;;;;;;;5023069;28;19925;-67
2021/10/04 05:19:16;;;;;;;;;;;;;;;;;;5016263;28;19929;-68
2021/10/04 05:21:43;;;;;;;;;;;;;;;;;;5014174;28;19925;-66
2021/10/04 05:24:11;;;;;;;;;;;;;;;;;;5017520;28;20533;-66
2021/10/04 05:26:38;;;;;;;;;;;;;;;;;;5008838;28;19926;-67
2021/10/04 05:29:05;;;;;;;;;;;;;;;;;;5019322;28;19936;-68
2021/10/04 05:31:32;;;;;;;;;;;;;;;;;;5013348;28;19926;-67
2021/10/04 05:33:59;;;;;;;;;;;;;;;;;;5014075;28;19999;-67
2021/10/04 05:36:26;;;;;;;;;;;;;;;;;;5013446;28;19925;-68
2021/10/04 05:38:53;;;;;;;;;;;;;;;;;;5015413;28;19925;-67
2021/10/04 05:41:20;;;;;;;;;;;;;;;;;;5011141;28;19925;-67
2021/10/04 05:43:47;;;;;;;;;;;;;;;;;;5017792;28;20372;-67
2021/10/04 05:46:14;;;;;;;;;;;;;;;;;;5012789;28;19948;-66
2021/10/04 05:48:41;;;;;;;;;;;;;;;;;;5013516;28;19926;-66
2021/10/04 05:51:09;;;;;;;;;;;;;;;;;;5012998;28;19933;-67
2021/10/04 05:53:36;;;;;;;;;;;;;;;;;;5009330;28;19925;-67
2021/10/04 05:56:03;;;;;;;;;;;;;;;;;;5016602;28;19932;-67
2021/10/04 05:58:30;;;;;;;;;;;;;;;;;;5012561;28;20298;-67
2021/10/04 06:00:57;;;;;;;;;;;;;;;;;;5012646;28;20277;-67
2021/10/04 06:03:24;;;;;;;;;;;;;;;;;;5016144;28;19926;-67
2021/10/04 06:05:51;;;;;;;;;;;;;;;;;;5018696;28;19925;-67
2021/10/04 06:08:18;;;;;;;;;;;;;;;;;;5019041;28;19976;-67
2021/10/04 06:10:45;;;;;;;;;;;;;;;;;;5012264;28;20380;-68
2021/10/04 06:13:12;;;;;;;;;;;;;;;;;;5012006;28;19932;-66
2021/10/04 06:15:39;;;;;;;;;;;;;;;;;;5016655;28;19984;-67
2021/10/04 06:18:08;;;;;;;;;;;;;;;;;;5011824;28;19933;-66
2021/10/04 06:20:35;;;;;;;;;;;;;;;;;;5012281;28;20604;-67
2021/10/04 06:23:02;;;;;;;;;;;;;;;;;;5013988;28;20055;-67
2021/10/04 06:25:29;;;;;;;;;;;;;;;;;;5011979;28;19940;-67
2021/10/04 06:27:56;;;;;;;;;;;;;;;;;;5011361;28;19932;-67
2021/10/04 06:30:23;;;;;;;;;;;;;;;;;;5012247;28;20473;-67
2021/10/04 06:32:50;;;;;;;;;;;;;;;;;;5012854;28;19933;-68
2021/10/04 06:35:17;;;;;;;;;;;;;;;;;;5012871;28;19937;-67
2021/10/04 06:37:44;;;;;;;;;;;;;;;;;;5010838;28;19925;-69
2021/10/04 06:40:11;;;;;;;;;;;;;;;;;;5012216;28;19933;-69
2021/10/04 06:42:38;;;;;;;;;;;;;;;;;;5008211;28;20552;-66
2021/10/04 06:45:05;;;;;;;;;;;;;;;;;;5019523;28;20357;-66
2021/10/04 06:47:32;;;;;;;;;;;;;;;;;;5009967;28;20305;-66
2021/10/04 06:49:59;;;;;;;;;;;;;;;;;;4998665;28;19952;-66
2021/10/04 06:52:26;;;;;;;;;;;;;;;;;;5006801;28;19932;-66
2021/10/04 06:54:53;;;;;;;;;;;;;;;;;;5002468;28;19925;-67
2021/10/04 06:57:19;;;;;;;;;;;;;;;;;;5004251;28;19940;-66
2021/10/04 06:59:46;;;;;;;;;;;;;;;;;;5000757;28;19933;-68
2021/10/04 07:02:13;;;;;;;;;;;;;;;;;;5007816;28;19932;-67
2021/10/04 07:04:40;;;;;;;;;;;;;;;;;;5008436;28;20024;-67
2021/10/04 07:07:07;;;;;;;;;;;;;;;;;;5011124;28;19930;-67
2021/10/04 07:09:35;;;;;;;;;;;;;;;;;;5009090;28;20576;-66
2021/10/04 07:12:02;;;;;;;;;;;;;;;;;;5008549;28;19926;-67
2021/10/04 07:14:29;;;;;;;;;;;;;;;;;;5010142;28;19925;-67
2021/10/04 07:16:56;;;;;;;;;;;;;;;;;;5009767;28;19932;-68
2021/10/04 07:19:23;;;;;;;;;;;;;;;;;;5006471;28;19925;-69
2021/10/04 07:21:52;;;;;;;;;;;;;;;;;;5005633;28;19926;-67
2021/10/04 07:24:19;;;;;;;;;;;;;;;;;;5010354;28;19925;-67
2021/10/04 07:26:47;;;;;;;;;;;;;;;;;;5005494;28;19933;-68
2021/10/04 07:29:14;;;;;;;;;;;;;;;;;;5009272;28;19932;-66
2021/10/04 07:31:41;;;;;;;;;;;;;;;;;;5008069;28;19925;-67
2021/10/04 07:34:08;;;;;;;;;;;;;;;;;;5006191;28;20550;-68
2021/10/04 07:36:35;;;;;;;;;;;;;;;;;;5007680;28;20317;-67
2021/10/04 07:39:03;;;;;;;;;;;;;;;;;;5005893;28;20024;-69
2021/10/04 07:41:29;;;;;;;;;;;;;;;;;;5007470;28;20016;-67
2021/10/04 07:43:56;;;;;;;;;;;;;;;;;;5006721;28;20419;-67
2021/10/04 07:46:23;;;;;;;;;;;;;;;;;;5007610;28;19926;-67
2021/10/04 07:48:50;;;;;;;;;;;;;;;;;;5006169;28;20214;-64
2021/10/04 07:51:17;;;;;;;;;;;;;;;;;;5006528;28;19951;-65
2021/10/04 07:53:46;;;;;;;;;;;;;;;;;;5010809;28;19930;-67
2021/10/04 07:56:13;;;;;;;;;;;;;;;;;;5007701;28;20437;-68
2021/10/04 07:58:40;;;;;;;;;;;;;;;;;;5001067;28;19967;-67
2021/10/04 08:01:07;;;;;;;;;;;;;;;;;;5002299;28;19936;-67
2021/10/04 08:03:34;;;;;;;;;;;;;;;;;;5007777;28;19932;-66
2021/10/04 08:06:00;;;;;;;;;;;;;;;;;;5010361;28;19926;-68
2021/10/04 08:08:27;;;;;;;;;;;;;;;;;;5003674;28;19929;-66
2021/10/04 08:10:54;;;;;;;;;;;;;;;;;;5007446;28;19926;-67
2021/10/04 08:13:21;;;;;;;;;;;;;;;;;;5007594;28;19925;-67
2021/10/04 08:15:48;;;;;;;;;;;;;;;;;;5010085;28;20042;-65
2021/10/04 08:18:15;;;;;;;;;;;;;;;;;;4993868;28;20301;-67
2021/10/04 08:20:42;;;;;;;;;;;;;;;;;;5006714;28;19948;-67
2021/10/04 08:23:10;;;;;;;;;;;;;;;;;;5010464;28;19925;-69
2021/10/04 08:25:37;;;;;;;;;;;;;;;;;;5006936;28;19949;-68
2021/10/04 08:28:04;;;;;;;;;;;;;;;;;;5010308;28;20386;-66
2021/10/04 08:30:32;;;;;;;;;;;;;;;;;;5002676;28;19948;-65
2021/10/04 08:32:59;;;;;;;;;;;;;;;;;;5007100;28;20334;-68
2021/10/04 08:35:26;;;;;;;;;;;;;;;;;;5009824;28;20301;-66
2021/10/04 08:37:53;;;;;;;;;;;;;;;;;;5009437;28;20403;-67
2021/10/04 08:40:20;;;;;;;;;;;;;;;;;;5008408;28;19929;-69
2021/10/04 08:42:47;;;;;;;;;;;;;;;;;;5010569;28;19932;-66
2021/10/04 08:45:14;;;;;;;;;;;;;;;;;;5006013;28;19933;-68
2021/10/04 08:47:41;;;;;;;;;;;;;;;;;;5009730;28;19945;-67
2021/10/04 08:50:08;;;;;;;;;;;;;;;;;;5006124;28;19932;-67
2021/10/04 08:52:35;;;;;;;;;;;;;;;;;;5006558;28;20393;-66
2021/10/04 08:55:02;;;;;;;;;;;;;;;;;;5010633;28;19925;-67
2021/10/04 08:57:29;;;;;;;;;;;;;;;;;;5007118;28;19956;-66
2021/10/04 08:59:56;;;;;;;;;;;;;;;;;;4999056;28;19930;-67
2021/10/04 09:02:25;;;;;;;;;;;;;;;;;;5007628;28;19925;-67
2021/10/04 09:04:52;;;;;;;;;;;;;;;;;;5014960;28;19931;-66
2021/10/04 09:07:19;;;;;;;;;;;;;;;;;;5018191;28;20302;-66
2021/10/04 09:09:46;;;;;;;;;;;;;;;;;;5011745;28;20019;-67
2021/10/04 09:12:20;;;;;;;;;;;;;;;;;;5013078;28;19926;-66
2021/10/04 09:14:47;;;;;;;;;;;;;;;;;;5006032;28;20613;-65
2021/10/04 09:17:14;;;;;;;;;;;;;;;;;;5013354;28;20293;-64
2021/10/04 09:19:41;;;;;;;;;;;;;;;;;;5012903;28;19926;-64
2021/10/04 09:22:08;;;;;;;;;;;;;;;;;;5014191;28;19930;-64
2021/10/04 09:24:35;;;;;;;;;;;;;;;;;;5012482;28;19932;-64
2021/10/04 09:27:02;;;;;;;;;;;;;;;;;;5014333;28;19929;-64
2021/10/04 09:29:29;;;;;;;;;;;;;;;;;;5015827;28;19932;-65
2021/10/04 09:31:56;;;;;;;;;;;;;;;;;;5015784;28;19936;-64
2021/10/04 09:34:23;;;;;;;;;;;;;;;;;;5014680;28;20251;-64
2021/10/04 09:36:50;;;;;;;;;;;;;;;;;;5009303;28;19925;-64
2021/10/04 09:39:17;;;;;;;;;;;;;;;;;;5012616;28;20540;-64
2021/10/04 09:41:44;;;;;;;;;;;;;;;;;;5009424;28;19933;-64
2021/10/04 09:44:11;;;;;;;;;;;;;;;;;;5050627;22;19932;-60
2021/10/04 09:46:38;;;;;;;;;;;;;;;;;;5050081;28;19924;-60
2021/10/04 09:49:05;;;;;;;;;;;;;;;;;;5048758;28;20280;-60
2021/10/04 09:51:32;;;;;;;;;;;;;;;;;;5052552;28;19932;-61
2021/10/04 09:53:59;;;;;;;;;;;;;;;;;;5042546;28;20296;-60
2021/10/04 09:56:26;;;;;;;;;;;;;;;;;;5048302;28;19925;-60
2021/10/04 09:58:53;;;;;;;;;;;;;;;;;;5045288;28;19970;-58
2021/10/04 10:01:20;;;;;;;;;;;;;;;;;;5041102;28;19933;-60
2021/10/04 10:03:48;;;;;;;;;;;;;;;;;;5044816;28;19925;-60
2021/10/04 10:06:14;;;;;;;;;;;;;;;;;;5044995;28;19933;-60
2021/10/04 10:08:41;;;;;;;;;;;;;;;;;;5048954;28;19924;-61
2021/10/04 10:11:13;;;;;;;;;;;;;;;;;;5044121;28;19925;-60
2021/10/04 10:13:40;;;;;;;;;;;;;;;;;;5042528;28;19933;-61
2021/10/04 10:16:07;;;;;;;;;;;;;;;;;;5049259;28;19925;-60
2021/10/04 10:18:34;;;;;;;;;;;;;;;;;;5045586;28;20362;-60
2021/10/04 10:21:01;;;;;;;;;;;;;;;;;;5047866;28;19936;-61
2021/10/04 10:23:28;;;;;;;;;;;;;;;;;;5045796;28;20296;-61
2021/10/04 10:25:55;;;;;;;;;;;;;;;;;;5049863;28;19928;-61
2021/10/04 10:28:21;;;;;;;;;;;;;;;;;;5047697;28;19925;-60
2021/10/04 10:30:48;;;;;;;;;;;;;;;;;;5049433;28;20295;-60
2021/10/04 10:33:15;;;;;;;;;;;;;;;;;;5046559;28;20312;-60
2021/10/04 10:35:42;;;;;;;;;;;;;;;;;;5048619;28;19925;-61
2021/10/04 10:38:09;;;;;;;;;;;;;;;;;;5043897;28;19934;-60
2021/10/04 10:40:36;;;;;;;;;;;;;;;;;;5045927;28;19925;-62
2021/10/04 10:43:03;;;;;;;;;;;;;;;;;;5046185;28;19924;-61
2021/10/04 10:45:30;;;;;;;;;;;;;;;;;;5048188;28;19932;-60
2021/10/04 10:47:57;;;;;;;;;;;;;;;;;;5043726;28;19932;-62
2021/10/04 10:50:24;;;;;;;;;;;;;;;;;;5046805;28;19928;-61
2021/10/04 10:52:51;;;;;;;;;;;;;;;;;;5049287;28;19932;-61
2021/10/04 10:55:18;;;;;;;;;;;;;;;;;;5046673;28;19925;-61
2021/10/04 10:57:45;;;;;;;;;;;;;;;;;;5046898;28;20296;-61
2021/10/04 11:00:12;;;;;;;;;;;;;;;;;;5047459;28;19970;-61
2021/10/04 11:02:39;;;;;;;;;;;;;;;;;;5037967;28;20400;-60
2021/10/04 11:05:08;;;;;;;;;;;;;;;;;;5043723;28;19924;-61
2021/10/04 11:07:35;;;;;;;;;;;;;;;;;;5040653;28;20421;-61
2021/10/04 11:10:02;;;;;;;;;;;;;;;;;;5047693;28;19931;-61
2021/10/04 11:12:29;;;;;;;;;;;;;;;;;;5045012;28;19925;-62
2021/10/04 11:14:56;;;;;;;;;;;;;;;;;;5045003;28;19932;-62
2021/10/04 11:17:23;;;;;;;;;;;;;;;;;;5046246;28;19931;-62
2021/10/04 11:19:50;;;;;;;;;;;;;;;;;;5047113;28;20304;-62
2021/10/04 11:22:17;;;;;;;;;;;;;;;;;;5045100;28;19932;-63
2021/10/04 11:24:44;;;;;;;;;;;;;;;;;;5044417;28;19931;-63
2021/10/04 11:27:11;;;;;;;;;;;;;;;;;;5046089;28;20859;-62
2021/10/04 11:29:39;;;;;;;;;;;;;;;;;;5049017;28;19931;-62
2021/10/04 11:32:06;;;;;;;;;;;;;;;;;;5043808;28;19928;-62
2021/10/04 11:34:34;;;;;;;;;;;;;;;;;;5047363;28;19925;-63
2021/10/04 11:37:02;;;;;;;;;;;;;;;;;;5044899;28;19951;-64
2021/10/04 11:39:29;;;;;;;;;;;;;;;;;;5049524;28;19951;-62
2021/10/04 11:41:56;;;;;;;;;;;;;;;;;;5045220;28;20384;-63
2021/10/04 11:44:23;;;;;;;;;;;;;;;;;;5047096;28;19935;-63
2021/10/04 11:46:50;;;;;;;;;;;;;;;;;;5043836;28;19925;-63
2021/10/04 11:49:18;;;;;;;;;;;;;;;;;;5046316;28;19925;-63
2021/10/04 11:51:49;;;;;;;;;;;;;;;;;;5045450;28;20289;-63
2021/10/04 11:54:16;;;;;;;;;;;;;;;;;;5048883;28;20353;-63
2021/10/04 11:56:43;;;;;;;;;;;;;;;;;;5046761;28;20303;-63
2021/10/04 11:59:10;;;;;;;;;;;;;;;;;;5043496;28;19943;-62
2021/10/04 12:01:37;;;;;;;;;;;;;;;;;;5044895;28;19924;-63
2021/10/04 12:04:04;;;;;;;;;;;;;;;;;;5037818;28;20273;-63
2021/10/04 12:06:31;;;;;;;;;;;;;;;;;;5043304;28;19932;-63
2021/10/04 12:08:58;;;;;;;;;;;;;;;;;;5043689;28;20106;-63
2021/10/04 12:11:25;;;;;;;;;;;;;;;;;;5041037;28;19931;-62
2021/10/04 12:13:52;;;;;;;;;;;;;;;;;;5040393;28;20373;-62
2021/10/04 12:16:19;;;;;;;;;;;;;;;;;;5044480;28;19925;-63
2021/10/04 12:18:45;;;;;;;;;;;;;;;;;;5041742;28;19999;-63
2021/10/04 12:21:12;;;;;;;;;;;;;;;;;;5045631;28;19925;-63
2021/10/04 12:23:39;;;;;;;;;;;;;;;;;;5044773;28;20392;-63
2021/10/04 12:26:06;;;;;;;;;;;;;;;;;;5040152;28;20320;-63
2021/10/04 12:28:33;;;;;;;;;;;;;;;;;;5044499;28;19925;-63
2021/10/04 12:31:00;;;;;;;;;;;;;;;;;;5044185;28;19932;-62
2021/10/04 12:33:27;;;;;;;;;;;;;;;;;;5043091;28;19925;-63
2021/10/04 12:35:54;;;;;;;;;;;;;;;;;;5046809;28;19928;-63
2021/10/04 12:38:21;;;;;;;;;;;;;;;;;;5050897;28;20373;-63
2021/10/04 12:40:49;;;;;;;;;;;;;;;;;;5044510;28;19929;-63
2021/10/04 12:43:15;;;;;;;;;;;;;;;;;;5047659;28;19929;-63
2021/10/04 12:45:42;;;;;;;;;;;;;;;;;;5042691;28;19932;-62
2021/10/04 12:48:09;;;;;;;;;;;;;;;;;;5047608;28;19924;-61
2021/10/04 12:50:36;;;;;;;;;;;;;;;;;;5050505;28;20010;-62
2021/10/04 12:53:03;;;;;;;;;;;;;;;;;;5048496;28;19925;-62
2021/10/04 12:55:30;;;;;;;;;;;;;;;;;;5047836;28;19951;-61
2021/10/04 12:58:01;;;;;;;;;;;;;;;;;;5050926;28;19925;-62
2021/10/04 13:00:28;;;;;;;;;;;;;;;;;;5048513;28;19931;-62
2021/10/04 13:02:55;;;;;;;;;;;;;;;;;;5047983;28;20381;-62
2021/10/04 13:05:22;;;;;;;;;;;;;;;;;;5044603;28;19925;-62
2021/10/04 13:07:49;;;;;;;;;;;;;;;;;;5049635;28;19925;-62
2021/10/04 13:10:16;;;;;;;;;;;;;;;;;;5049887;28;19928;-61
2021/10/04 13:12:43;;;;;;;;;;;;;;;;;;5050241;28;19925;-62
2021/10/04 13:15:09;;;;;;;;;;;;;;;;;;5053354;28;19931;-62
2021/10/04 13:17:37;;;;;;;;;;;;;;;;;;5052542;28;19928;-62
2021/10/04 13:20:04;;;;;;;;;;;;;;;;;;5050356;28;19924;-62
2021/10/04 13:22:31;;;;;;;;;;;;;;;;;;5052782;28;19929;-63
2021/10/04 13:24:58;;;;;;;;;;;;;;;;;;5053533;28;19929;-63
2021/10/04 13:27:25;;;;;;;;;;;;;;;;;;5052064;28;20015;-63
2021/10/04 13:29:52;;;;;;;;;;;;;;;;;;5052679;28;19931;-63
2021/10/04 13:32:19;;;;;;;;;;;;;;;;;;5052699;28;19924;-62
2021/10/04 13:34:46;;;;;;;;;;;;;;;;;;5047691;28;19931;-62
2021/10/04 13:37:14;;;;;;;;;;;;;;;;;;5045535;28;19947;-63
2021/10/04 13:39:41;;;;;;;;;;;;;;;;;;5049515;28;19925;-62
2021/10/04 13:42:08;;;;;;;;;;;;;;;;;;5050334;28;19925;-62
2021/10/04 13:44:35;;;;;;;;;;;;;;;;;;5049266;28;19932;-63
2021/10/04 13:47:02;;;;;;;;;;;;;;;;;;5047361;28;19931;-63
2021/10/04 13:49:29;;;;;;;;;;;;;;;;;;5048141;28;19929;-63
2021/10/04 13:51:56;;;;;;;;;;;;;;;;;;5050669;28;19932;-63
2021/10/04 13:54:23;;;;;;;;;;;;;;;;;;5050094;28;20408;-63
2021/10/04 13:56:50;;;;;;;;;;;;;;;;;;5051289;28;19964;-63
2021/10/04 13:59:17;;;;;;;;;;;;;;;;;;5050430;28;19944;-62
2021/10/04 14:01:45;;;;;;;;;;;;;;;;;;5050838;28;20007;-63
2021/10/04 14:04:12;;;;;;;;;;;;;;;;;;5045315;28;20016;-63
2021/10/04 14:06:39;;;;;;;;;;;;;;;;;;5041038;28;20373;-63
2021/10/04 14:09:06;;;;;;;;;;;;;;;;;;5041857;28;19928;-63
2021/10/04 14:11:33;;;;;;;;;;;;;;;;;;5046562;28;19925;-63
2021/10/04 14:13:59;;;;;;;;;;;;;;;;;;5046920;28;19931;-63
2021/10/04 14:16:26;;;;;;;;;;;;;;;;;;5049209;28;20653;-62
2021/10/04 14:18:54;;;;;;;;;;;;;;;;;;5047666;28;19924;-63
2021/10/04 14:21:21;;;;;;;;;;;;;;;;;;5048951;28;20047;-63
2021/10/04 14:23:48;;;;;;;;;;;;;;;;;;5051047;28;19947;-63
2021/10/04 14:26:15;;;;;;;;;;;;;;;;;;5047180;28;19925;-64
2021/10/04 14:28:42;;;;;;;;;;;;;;;;;;5048855;28;19979;-63
2021/10/04 14:31:09;;;;;;;;;;;;;;;;;;5049480;28;19972;-63
2021/10/04 14:33:36;;;;;;;;;;;;;;;;;;5049642;28;19931;-64
2021/10/04 14:36:03;;;;;;;;;;;;;;;;;;5048277;28;19925;-64
2021/10/04 14:38:30;;;;;;;;;;;;;;;;;;5049228;28;20300;-63
2021/10/04 14:40:57;;;;;;;;;;;;;;;;;;5047522;28;19939;-63
2021/10/04 14:43:23;;;;;;;;;;;;;;;;;;5047275;28;19932;-63
2021/10/04 14:45:50;;;;;;;;;;;;;;;;;;5045504;28;19925;-63
2021/10/04 14:48:17;;;;;;;;;;;;;;;;;;5047979;28;20315;-63
2021/10/04 14:50:44;;;;;;;;;;;;;;;;;;5042986;28;19925;-63
2021/10/04 14:53:11;;;;;;;;;;;;;;;;;;5044962;28;19932;-63
2021/10/04 14:55:38;;;;;;;;;;;;;;;;;;5044540;28;20377;-63
2021/10/04 14:58:05;;;;;;;;;;;;;;;;;;5049017;28;19925;-63
2021/10/04 15:00:32;;;;;;;;;;;;;;;;;;5042118;28;20348;-63
2021/10/04 15:02:59;;;;;;;;;;;;;;;;;;5040944;28;20345;-63
2021/10/04 15:05:26;;;;;;;;;;;;;;;;;;5045563;28;20023;-63
2021/10/04 15:07:53;;;;;;;;;;;;;;;;;;5043743;28;19947;-62
2021/10/04 15:10:20;;;;;;;;;;;;;;;;;;5046265;28;19925;-61
2021/10/04 15:12:47;;;;;;;;;;;;;;;;;;5044957;28;20416;-62
2021/10/04 15:15:14;;;;;;;;;;;;;;;;;;5045601;28;19932;-61
2021/10/04 15:17:41;;;;;;;;;;;;;;;;;;5047334;28;19929;-60
2021/10/04 15:20:08;;;;;;;;;;;;;;;;;;5044760;28;19925;-62
2021/10/04 15:22:35;;;;;;;;;;;;;;;;;;5045065;28;20012;-62
2021/10/04 15:25:02;;;;;;;;;;;;;;;;;;5048039;28;20296;-63
2021/10/04 15:27:29;;;;;;;;;;;;;;;;;;5048003;28;19925;-62
2021/10/04 15:29:56;;;;;;;;;;;;;;;;;;5050615;28;19935;-63
2021/10/04 15:32:23;;;;;;;;;;;;;;;;;;5048472;28;19931;-62
2021/10/04 15:34:50;;;;;;;;;;;;;;;;;;5044493;28;19925;-62
2021/10/04 15:37:17;;;;;;;;;;;;;;;;;;5046879;28;20475;-62
2021/10/04 15:39:44;;;;;;;;;;;;;;;;;;5043849;28;19925;-62
2021/10/04 15:42:11;;;;;;;;;;;;;;;;;;5044924;28;19933;-63
2021/10/04 15:44:38;;;;;;;;;;;;;;;;;;5051146;22;19932;-62
2021/10/04 15:47:05;;;;;;;;;;;;;;;;;;5034566;28;19925;-62
2021/10/04 15:49:32;;;;;;;;;;;;;;;;;;5035064;28;20218;-61
2021/10/04 15:52:00;;;;;;;;;;;;;;;;;;5041806;28;19932;-61
2021/10/04 15:54:27;;;;;;;;;;;;;;;;;;5038592;28;20331;-62
2021/10/04 15:56:54;;;;;;;;;;;;;;;;;;5037314;28;19929;-61
2021/10/04 15:59:21;;;;;;;;;;;;;;;;;;5031560;28;19983;-62
2021/10/04 16:01:48;;;;;;;;;;;;;;;;;;5030336;28;20004;-62
2021/10/04 16:04:16;;;;;;;;;;;;;;;;;;5036320;28;19925;-61
2021/10/04 16:06:42;;;;;;;;;;;;;;;;;;5039680;28;19925;-61
2021/10/04 16:09:09;;;;;;;;;;;;;;;;;;5034382;28;19925;-60
2021/10/04 16:11:36;;;;;;;;;;;;;;;;;;5032798;28;20424;-61
2021/10/04 16:14:03;;;;;;;;;;;;;;;;;;5032584;28;19929;-61
2021/10/04 16:16:30;;;;;;;;;;;;;;;;;;5035281;28;20381;-61
2021/10/04 16:18:57;;;;;;;;;;;;;;;;;;5032297;28;19975;-61
2021/10/04 16:21:24;;;;;;;;;;;;;;;;;;5039838;28;20348;-61
2021/10/04 16:23:51;;;;;;;;;;;;;;;;;;5033734;28;20016;-62
2021/10/04 16:26:19;;;;;;;;;;;;;;;;;;5032270;28;19968;-62
2021/10/04 16:28:46;;;;;;;;;;;;;;;;;;5034742;28;20348;-61
2021/10/04 16:31:13;;;;;;;;;;;;;;;;;;5036315;28;20012;-61
2021/10/04 16:33:40;;;;;;;;;;;;;;;;;;5030221;28;20352;-61
2021/10/04 16:36:07;;;;;;;;;;;;;;;;;;5036418;28;19932;-61
2021/10/04 16:38:34;;;;;;;;;;;;;;;;;;5028580;28;19929;-61
2021/10/04 16:41:01;;;;;;;;;;;;;;;;;;5037310;28;19931;-61
2021/10/04 16:43:28;;;;;;;;;;;;;;;;;;5034408;28;20007;-61